Time;durP1;ratioP1;P1;durP2;ratioP2;P2;SDS_P1;SDS_P2;PMS_P1;PMS_P2;Temp;Humidity;BMP_temperature;BMP_pressure;BME280_temperature;BME280_humidity;BME280_pressure;Samples;Min_cycle;Max_cycle;Signal;HPM_P1;HPM_P2
2021/05/02 00:00:36;;;;;;;22.10;12.13;;;4.60;99.90;;;;;;5014675;28;20054;-89
2021/05/02 00:03:07;;;;;;;22.83;14.35;;;4.60;99.90;;;;;;5016851;28;20057;-91
2021/05/02 00:05:39;;;;;;;26.42;13.80;;;4.60;99.90;;;;;;4991438;28;20064;-90
2021/05/02 00:08:09;;;;;;;28.17;12.52;;;4.50;99.90;;;;;;5024404;28;20580;-93
2021/05/02 00:10:38;;;;;;;25.40;13.98;;;4.50;99.90;;;;;;5030511;28;20048;-93
2021/05/02 00:13:06;;;;;;;26.70;13.95;;;4.50;99.90;;;;;;5018062;28;20056;-91
2021/05/02 00:16:07;;;;;;;25.48;13.00;;;4.40;99.90;;;;;;5003516;28;20046;-92
2021/05/02 00:18:37;;;;;;;24.08;14.02;;;4.40;99.90;;;;;;5014130;28;20059;-91
2021/05/02 00:21:10;;;;;;;30.48;13.50;;;4.60;99.90;;;;;;4992419;28;20050;-93
2021/05/02 00:23:41;;;;;;;21.33;12.43;;;4.30;99.90;;;;;;5022261;28;20049;-88
2021/05/02 00:26:11;;;;;;;25.63;14.07;;;4.30;99.90;;;;;;4999707;28;20069;-91
2021/05/02 00:28:44;;;;;;;27.50;16.70;;;4.30;99.90;;;;;;5022170;28;20061;-90
2021/05/02 00:31:14;;;;;;;38.72;16.25;;;4.20;99.90;;;;;;5021648;28;20061;-91
2021/05/02 00:33:43;;;;;;;24.20;14.98;;;4.20;99.90;;;;;;5024554;28;20053;-92
2021/05/02 00:36:12;;;;;;;23.55;14.07;;;4.20;99.90;;;;;;5040214;28;20045;-93
2021/05/02 00:38:41;;;;;;;23.08;13.35;;;4.20;99.90;;;;;;5022136;28;20065;-90
2021/05/02 00:41:27;;;;;;;25.58;14.30;;;4.20;99.90;;;;;;4990677;28;20062;-92
2021/05/02 00:44:04;;;;;;;26.80;15.27;;;4.20;99.90;;;;;;5010493;28;20054;-89
2021/05/02 00:46:49;;;;;;;31.98;15.38;;;4.10;99.90;;;;;;5022161;28;20121;-92
2021/05/02 00:49:29;;;;;;;28.70;16.83;;;4.20;99.90;;;;;;5029245;28;20060;-90
2021/05/02 00:52:00;;;;;;;27.67;16.60;;;4.20;99.90;;;;;;4998541;28;20046;-91
2021/05/02 00:54:46;;;;;;;27.47;15.37;;;5.70;99.90;;;;;;5009569;28;20065;-89
2021/05/02 00:57:28;;;;;;;35.80;16.42;;;4.20;99.90;;;;;;5030716;28;20303;-92
2021/05/02 01:00:06;;;;;;;26.60;16.08;;;4.10;99.90;;;;;;5009611;28;20057;-91
2021/05/02 01:02:38;;;;;;;23.45;13.75;;;4.10;99.90;;;;;;5014718;28;20052;-90
2021/05/02 01:05:27;;;;;;;;;;;4.10;99.90;;;;;;5001981;28;20068;-89
2021/05/02 01:08:01;;;;;;;33.40;15.75;;;4.00;99.90;;;;;;5003292;28;20109;-90
2021/05/02 01:10:31;;;;;;;27.75;13.95;;;3.90;99.90;;;;;;5018006;28;20687;-90
2021/05/02 01:13:00;;;;;;;24.83;14.25;;;4.70;99.90;;;;;;4985406;28;20050;-91
2021/05/02 01:15:33;;;;;;;28.80;17.33;;;3.80;99.90;;;;;;5018161;28;20050;-91
2021/05/02 01:18:08;;;;;;;26.67;15.38;;;3.80;99.90;;;;;;5002133;28;20057;-91
2021/05/02 01:20:41;;;;;;;30.05;17.45;;;3.70;99.90;;;;;;5031870;28;20054;-91
2021/05/02 01:23:17;;;;;;;27.45;15.45;;;3.70;99.90;;;;;;4675505;28;9999958;-91
2021/05/02 01:25:45;;;;;;;28.52;17.17;;;3.70;99.90;;;;;;5018301;28;20445;-91
2021/05/02 01:28:13;;;;;;;33.03;16.77;;;3.70;99.90;;;;;;5017539;28;20053;-89
2021/05/02 01:30:43;;;;;;;32.65;16.88;;;3.70;99.90;;;;;;5018278;28;20046;-92
2021/05/02 01:33:10;;;;;;;29.40;16.85;;;3.90;99.90;;;;;;5004805;28;20058;-90
2021/05/02 01:35:42;;;;;;;27.25;17.40;;;3.70;99.90;;;;;;5026081;28;20069;-91
2021/05/02 01:38:13;;;;;;;31.85;16.67;;;3.80;99.90;;;;;;5026322;28;20042;-90
2021/05/02 01:40:42;;;;;;;26.13;14.38;;;3.70;99.90;;;;;;5032364;28;20045;-90
2021/05/02 01:43:10;;;;;;;27.60;16.42;;;3.80;99.90;;;;;;5024042;28;20061;-90
2021/05/02 01:45:41;;;;;;;32.70;16.20;;;3.80;99.90;;;;;;5021958;28;20054;-90
2021/05/02 01:48:12;;;;;;;30.35;17.02;;;3.70;99.90;;;;;;5005688;28;20054;-88
2021/05/02 01:51:04;;;;;;;34.70;17.27;;;3.70;99.90;;;;;;5011771;28;20050;-88
2021/05/02 01:53:32;;;;;;;30.83;16.38;;;3.60;99.90;;;;;;5004149;28;20057;-89
2021/05/02 01:56:07;;;;;;;29.45;18.77;;;4.90;99.90;;;;;;4986342;28;20073;-89
2021/05/02 01:58:36;;;;;;;29.85;17.42;;;3.60;99.90;;;;;;5018587;28;20053;-89
2021/05/02 02:01:07;;;;;;;41.38;18.63;;;3.60;99.90;;;;;;5017475;28;20049;-88
2021/05/02 02:03:35;;;;;;;;;;;4.20;99.90;;;;;;5000392;28;20058;-89
2021/05/02 02:06:04;;;;;;;31.23;15.52;;;3.60;99.90;;;;;;5018153;28;19926;-92
2021/05/02 02:08:33;;;;;;;26.58;15.88;;;3.50;99.90;;;;;;5014308;28;20065;-90
2021/05/02 02:11:01;;;;;;;30.20;18.40;;;3.50;99.90;;;;;;5024171;28;20034;-87
2021/05/02 02:13:39;;;;;;;36.80;20.85;;;3.40;99.90;;;;;;5030881;28;20057;-89
2021/05/02 02:16:08;;;;;;;32.88;16.88;;;3.40;99.90;;;;;;5023650;28;20513;-92
2021/05/02 02:18:42;;;;;;;29.98;17.27;;;3.40;99.90;;;;;;5022342;28;20050;-89
2021/05/02 02:21:12;;;;;;;31.02;17.05;;;3.40;99.90;;;;;;4989400;28;20046;-91
2021/05/02 02:23:42;;;;;;;31.45;16.95;;;3.40;99.90;;;;;;5021465;28;20062;-92
2021/05/02 02:26:21;;;;;;;31.00;17.40;;;3.40;99.90;;;;;;4995081;28;20046;-89
2021/05/02 02:28:53;;;;;;;38.20;18.23;;;3.40;99.90;;;;;;5008349;28;20517;-91
2021/05/02 02:31:24;;;;;;;30.92;17.70;;;3.40;99.90;;;;;;5000555;28;20061;-91
2021/05/02 02:33:52;;;;;;;28.10;17.88;;;3.40;99.90;;;;;;4964561;28;20049;-91
2021/05/02 02:36:23;;;;;;;28.70;18.55;;;3.50;99.90;;;;;;5020159;28;20061;-88
2021/05/02 02:38:51;;;;;;;29.42;16.58;;;3.40;99.90;;;;;;5028398;28;20053;-91
2021/05/02 02:41:21;;;;;;;29.70;16.15;;;5.10;99.90;;;;;;5035771;28;20056;-92
2021/05/02 02:43:54;;;;;;;37.40;17.60;;;3.80;99.90;;;;;;5035114;28;20053;-91
2021/05/02 02:46:23;;;;;;;28.35;15.88;;;3.50;99.90;;;;;;5046457;28;20041;-89
2021/05/02 02:48:55;;;;;;;31.50;16.60;;;3.60;99.90;;;;;;5039417;28;20041;-91
2021/05/02 02:51:26;;;;;;;27.58;17.63;;;3.60;99.90;;;;;;5036253;28;20167;-91
2021/05/02 02:54:00;;;;;;;27.60;16.83;;;4.60;99.90;;;;;;5009252;28;20050;-91
2021/05/02 02:56:33;;;;;;;32.38;14.95;;;3.70;99.90;;;;;;5038443;28;20041;-90
2021/05/02 02:59:18;;;;;;;32.25;17.75;;;3.70;99.90;;;;;;4997434;28;20049;-92
2021/05/02 03:01:48;;;;;;;30.45;16.50;;;3.80;99.90;;;;;;5029842;28;20058;-90
2021/05/02 03:04:18;;;;;;;28.83;17.27;;;3.80;99.90;;;;;;5028480;28;20529;-91
2021/05/02 03:07:17;;;;;;;28.40;16.85;;;3.90;99.90;;;;;;4993743;28;20057;-86
2021/05/02 03:09:50;;;;;;;27.88;16.15;;;3.90;99.90;;;;;;5022727;28;20046;-92
2021/05/02 03:12:22;;;;;;;31.23;17.35;;;3.90;99.90;;;;;;5008071;28;20057;-91
2021/05/02 03:14:51;;;;;;;30.98;15.07;;;4.00;99.90;;;;;;5027362;28;20068;-92
2021/05/02 03:17:41;;;;;;;33.42;20.17;;;4.00;99.90;;;;;;5021183;28;20050;-90
2021/05/02 03:20:15;;;;;;;28.70;18.30;;;4.00;99.90;;;;;;5010452;28;20042;-90
2021/05/02 03:22:59;;;;;;;33.83;18.70;;;4.10;99.90;;;;;;5020009;28;20295;-90
2021/05/02 03:25:32;;;;;;;30.27;18.13;;;4.00;99.90;;;;;;5037862;28;20702;-90
2021/05/02 03:28:02;;;;;;;;;;;4.80;99.90;;;;;;5019346;28;20041;-90
2021/05/02 03:30:31;;;;;;;33.33;19.80;;;4.10;99.90;;;;;;5012940;28;20013;-91
2021/05/02 03:33:03;;;;;;;41.53;25.25;;;5.00;99.90;;;;;;5014990;28;20050;-92
2021/05/02 03:35:33;;;;;;;36.33;18.65;;;4.10;99.90;;;;;;5012248;28;20050;-93
2021/05/02 03:38:16;;;;;;;32.80;19.42;;;4.20;99.90;;;;;;5014265;28;20054;-91
2021/05/02 03:40:54;;;;;;;35.15;21.77;;;4.10;99.90;;;;;;5032296;28;20048;-92
2021/05/02 03:43:22;;;;;;;30.85;19.15;;;4.10;99.90;;;;;;5017858;28;20061;-90
2021/05/02 03:45:50;;;;;;;33.05;20.52;;;4.20;99.90;;;;;;5012594;28;20071;-91
2021/05/02 03:48:17;;;;;;;34.70;19.98;;;4.20;99.90;;;;;;5007352;28;20046;-90
2021/05/02 03:50:45;;;;;;;38.03;23.50;;;4.30;99.90;;;;;;5018610;28;20064;-89
2021/05/02 03:53:14;;;;;;;39.53;22.45;;;4.30;99.90;;;;;;5004989;28;20057;-91
2021/05/02 03:55:46;;;;;;;35.33;18.75;;;4.70;99.90;;;;;;5024143;28;20045;-88
2021/05/02 03:58:17;;;;;;;31.02;19.33;;;4.30;99.90;;;;;;5007086;28;20054;-89
2021/05/02 04:00:45;;;;;;;30.65;19.15;;;4.40;99.90;;;;;;5012004;28;20054;-90
2021/05/02 04:03:14;;;;;;;36.97;20.75;;;4.40;99.90;;;;;;5017715;28;20540;-89
2021/05/02 04:05:42;;;;;;;35.13;21.95;;;4.50;99.90;;;;;;5024240;28;20054;-92
2021/05/02 04:08:10;;;;;;;33.90;21.23;;;4.50;99.90;;;;;;5006840;28;20050;-90
2021/05/02 04:10:38;;;;;;;31.27;20.20;;;4.60;99.90;;;;;;5026850;28;20048;-90
2021/05/02 04:13:07;;;;;;;34.17;21.17;;;4.70;99.90;;;;;;4991059;28;20058;-91
2021/05/02 04:15:35;;;;;;;34.55;20.67;;;4.70;99.90;;;;;;5006394;28;20056;-89
2021/05/02 04:18:03;;;;;;;28.63;18.10;;;4.70;99.90;;;;;;5005858;28;20082;-90
2021/05/02 04:20:30;;;;;;;33.17;20.42;;;4.70;99.90;;;;;;5016042;28;20065;-90
2021/05/02 04:22:59;;;;;;;30.50;19.02;;;4.70;99.90;;;;;;5006777;28;20050;-90
2021/05/02 04:25:28;;;;;;;36.30;20.83;;;4.80;99.90;;;;;;5044091;28;20050;-90
2021/05/02 04:28:00;;;;;;;34.00;20.27;;;4.30;99.90;;;;;;5016865;28;20037;-89
2021/05/02 04:30:28;;;;;;;34.80;20.38;;;3.30;99.90;;;;;;5019041;28;20046;-89
2021/05/02 04:32:55;;;;;;;33.47;18.75;;;4.90;99.90;;;;;;5033277;28;20038;-90
2021/05/02 04:35:23;;;;;;;30.63;18.77;;;5.00;99.90;;;;;;5016630;28;20049;-90
2021/05/02 04:37:53;;;;;;;33.78;18.10;;;5.00;99.90;;;;;;5002743;28;20046;-92
2021/05/02 04:40:20;;;;;;;33.67;19.35;;;5.80;99.90;;;;;;5015687;28;20056;-92
2021/05/02 04:42:47;;;;;;;32.22;18.17;;;5.10;99.90;;;;;;5014122;28;20398;-92
2021/05/02 04:45:15;;;;;;;36.28;19.58;;;5.40;99.90;;;;;;5014518;28;20769;-92
2021/05/02 04:47:42;;;;;;;35.60;19.00;;;6.00;99.90;;;;;;5013745;28;20050;-93
2021/05/02 04:50:11;;;;;;;28.67;18.10;;;5.20;99.90;;;;;;5012054;28;20058;-90
2021/05/02 04:52:43;;;;;;;28.20;16.75;;;5.20;99.90;;;;;;4996739;28;20050;-89
2021/05/02 04:55:12;;;;;;;35.65;17.73;;;6.10;99.90;;;;;;5011702;28;20065;-92
2021/05/02 04:57:41;;;;;;;33.33;17.02;;;5.20;99.90;;;;;;4995148;28;20061;-92
2021/05/02 05:00:09;;;;;;;30.45;17.05;;;5.20;99.90;;;;;;5008991;28;20057;-91
2021/05/02 05:02:37;;;;;;;29.60;17.08;;;5.20;99.90;;;;;;5009544;28;20058;-93
2021/05/02 05:05:05;;;;;;;29.52;17.02;;;5.90;99.90;;;;;;5012303;28;20171;-93
2021/05/02 05:07:36;;;;;;;32.10;18.70;;;5.20;99.90;;;;;;5011414;28;20046;-93
2021/05/02 05:10:04;;;;;;;26.20;16.50;;;5.20;99.90;;;;;;4999955;28;20061;-90
2021/05/02 05:12:31;;;;;;;32.33;17.15;;;5.20;99.90;;;;;;5002824;28;20046;-92
2021/05/02 05:14:59;;;;;;;36.13;17.30;;;5.80;99.90;;;;;;5011034;28;20053;-92
2021/05/02 05:17:26;;;;;;;29.60;18.10;;;5.70;99.90;;;;;;4999263;28;20050;-92
2021/05/02 05:19:53;;;;;;;27.05;16.92;;;6.30;99.90;;;;;;4995444;28;20046;-91
2021/05/02 05:22:22;;;;;;;31.67;17.13;;;5.40;99.90;;;;;;5002383;28;20882;-93
2021/05/02 05:24:49;;;;;;;28.42;15.05;;;5.60;99.90;;;;;;5015289;28;20485;-93
2021/05/02 05:27:17;;;;;;;29.98;15.68;;;5.40;99.90;;;;;;4980133;28;20073;-92
2021/05/02 05:29:45;;;;;;;28.85;16.58;;;5.40;99.90;;;;;;4979715;28;20053;-92
2021/05/02 05:32:13;;;;;;;28.45;15.10;;;5.50;99.90;;;;;;4997067;28;20053;-93
2021/05/02 05:34:42;;;;;;;30.38;16.98;;;5.50;99.90;;;;;;5000855;28;20060;-93
2021/05/02 05:37:09;;;;;;;23.52;14.98;;;5.50;99.90;;;;;;5013573;28;20053;-93
2021/05/02 05:39:38;;;;;;;29.63;15.45;;;5.60;99.90;;;;;;5011807;28;20554;-94
2021/05/02 05:42:06;;;;;;;26.75;16.13;;;5.60;99.90;;;;;;4995107;28;20489;-93
2021/05/02 05:44:34;;;;;;;29.00;15.68;;;5.70;99.90;;;;;;5013220;28;20054;-91
2021/05/02 05:47:04;;;;;;;28.08;16.75;;;6.10;99.90;;;;;;5013803;28;20046;-93
2021/05/02 05:49:32;;;;;;;29.05;17.23;;;6.00;99.90;;;;;;5012595;28;20065;-93
2021/05/02 05:52:00;;;;;;;29.30;16.83;;;5.90;99.90;;;;;;5018547;28;20048;-93
2021/05/02 05:54:28;;;;;;;25.85;16.25;;;6.00;99.90;;;;;;5004016;28;20046;-93
2021/05/02 05:56:57;;;;;;;30.13;16.85;;;7.00;99.90;;;;;;5023737;28;20493;-93
2021/05/02 05:59:25;;;;;;;28.70;15.00;;;6.40;99.90;;;;;;5010147;28;20055;-93
2021/05/02 06:01:52;;;;;;;30.48;17.13;;;7.60;99.90;;;;;;5007538;28;20062;-93
2021/05/02 06:04:20;;;;;;;32.60;19.00;;;6.30;99.90;;;;;;5014200;28;20057;-93
2021/05/02 06:06:48;;;;;;;28.08;17.60;;;6.30;99.90;;;;;;5010585;28;20046;-93
2021/05/02 06:09:19;;;;;;;28.35;17.98;;;6.40;99.90;;;;;;5013365;28;20370;-93
2021/05/02 06:11:47;;;;;;;29.30;17.73;;;6.40;99.90;;;;;;4996805;28;20427;-92
2021/05/02 06:14:16;;;;;;;29.08;19.58;;;7.30;99.90;;;;;;5013997;28;20057;-93
2021/05/02 06:16:43;;;;;;;33.35;20.65;;;6.70;99.90;;;;;;5028973;28;20050;-94
2021/05/02 06:19:11;;;;;;;31.35;19.02;;;6.60;99.90;;;;;;4999455;28;20053;-93
2021/05/02 06:21:40;;;;;;;30.02;17.40;;;7.40;99.90;;;;;;5022327;28;20057;-93
2021/05/02 06:24:08;;;;;;;27.13;16.33;;;6.80;99.90;;;;;;5014376;28;20050;-92
2021/05/02 06:26:37;;;;;;;30.00;18.25;;;6.80;99.90;;;;;;5035066;28;20053;-93
2021/05/02 06:29:07;;;;;;;28.23;17.45;;;6.80;99.90;;;;;;5016973;28;20060;-93
2021/05/02 06:31:34;;;;;;;31.15;18.73;;;6.90;99.90;;;;;;5001661;28;20061;-94
2021/05/02 06:34:03;;;;;;;29.80;18.27;;;7.00;99.90;;;;;;5026295;28;20057;-91
2021/05/02 06:36:31;;;;;;;28.73;17.58;;;8.10;99.90;;;;;;5017075;28;20093;-93
2021/05/02 06:39:00;;;;;;;29.52;18.58;;;7.10;99.90;;;;;;4996417;28;20505;-92
2021/05/02 06:41:27;;;;;;;27.98;16.42;;;7.10;99.90;;;;;;5015731;28;20062;-92
2021/05/02 06:43:55;;;;;;;33.25;17.17;;;7.30;99.90;;;;;;5015898;28;20249;-93
2021/05/02 06:46:28;;;;;;;31.10;15.80;;;6.70;99.90;;;;;;5014914;28;20058;-93
2021/05/02 06:48:57;;;;;;;27.77;16.33;;;7.30;99.90;;;;;;5014335;28;20061;-92
2021/05/02 06:51:25;;;;;;;26.58;16.45;;;7.80;99.90;;;;;;4999585;28;20049;-92
2021/05/02 06:53:53;;;;;;;31.42;17.13;;;7.40;99.90;;;;;;5001307;28;20068;-94
2021/05/02 06:56:26;;;;;;;29.60;17.77;;;7.40;99.90;;;;;;5018510;28;20050;-92
2021/05/02 06:58:56;;;;;;;33.25;18.80;;;7.50;99.90;;;;;;4997455;28;20050;-93
2021/05/02 07:01:26;;;;;;;25.00;14.17;;;7.60;99.90;;;;;;5020532;28;20075;-93
2021/05/02 07:04:10;;;;;;;31.60;14.20;;;7.60;99.90;;;;;;5005646;28;20050;-93
2021/05/02 07:06:40;;;;;;;26.73;13.75;;;7.70;99.90;;;;;;5005369;28;20513;-91
2021/05/02 07:09:07;;;;;;;23.85;12.45;;;7.70;99.90;;;;;;5008541;28;20053;-88
2021/05/02 07:11:35;;;;;;;22.98;11.55;;;8.50;99.90;;;;;;5026888;28;20053;-91
2021/05/02 07:14:05;;;;;;;24.33;11.27;;;7.90;99.90;;;;;;5019315;28;20423;-91
2021/05/02 07:16:32;;;;;;;20.95;11.57;;;8.00;99.90;;;;;;5015378;28;20532;-93
2021/05/02 07:19:02;;;;;;;20.88;10.93;;;8.00;99.90;;;;;;5017647;28;20432;-88
2021/05/02 07:21:30;;;;;;;18.15;11.45;;;8.80;99.90;;;;;;4680806;28;10000415;-91
2021/05/02 07:23:57;;;;;;;24.17;12.32;;;8.00;99.90;;;;;;5014516;28;20061;-93
2021/05/02 07:26:24;;;;;;;28.67;13.18;;;8.10;99.90;;;;;;5015056;28;20045;-94
2021/05/02 07:28:52;;;;;;;23.50;14.88;;;8.10;99.90;;;;;;5017418;28;20053;-92
2021/05/02 07:31:20;;;;;;;25.35;13.77;;;8.10;99.90;;;;;;5033517;28;20114;-91
2021/05/02 07:33:47;;;;;;;23.02;12.18;;;8.20;99.90;;;;;;4999561;28;20057;-90
2021/05/02 07:36:16;;;;;;;29.52;14.57;;;8.10;99.90;;;;;;5012370;28;20780;-93
2021/05/02 07:38:50;;;;;;;29.30;14.55;;;8.10;99.90;;;;;;4992910;28;20050;-90
2021/05/02 07:41:18;;;;;;;26.23;13.27;;;8.10;99.90;;;;;;5034064;28;20041;-89
2021/05/02 07:43:47;;;;;;;26.25;13.07;;;8.10;99.90;;;;;;5003805;28;20072;-92
2021/05/02 07:46:19;;;;;;;26.15;14.20;;;8.20;99.90;;;;;;5004831;28;20066;-93
2021/05/02 07:48:47;;;;;;;21.65;13.55;;;8.20;99.90;;;;;;4991305;28;20063;-92
2021/05/02 07:51:23;;;;;;;26.17;13.13;;;8.20;99.90;;;;;;5020452;28;20050;-93
2021/05/02 07:53:52;;;;;;;25.33;11.90;;;8.30;99.90;;;;;;5004117;28;20048;-93
2021/05/02 07:56:20;;;;;;;24.05;12.77;;;8.30;99.90;;;;;;5006013;28;20037;-93
2021/05/02 07:58:48;;;;;;;23.63;13.25;;;8.40;99.90;;;;;;5016258;28;20054;-93
2021/05/02 08:01:16;;;;;;;31.92;15.18;;;8.50;99.90;;;;;;5016010;28;20451;-93
2021/05/02 08:03:45;;;;;;;15.73;9.93;;;8.60;99.90;;;;;;5017498;28;20413;-92
2021/05/02 08:06:23;;;;;;;22.73;10.82;;;8.70;99.90;;;;;;5018739;28;20075;-93
2021/05/02 08:08:53;;;;;;;27.70;12.30;;;8.70;99.90;;;;;;5019070;28;20050;-92
2021/05/02 08:11:21;;;;;;;20.52;10.65;;;8.80;99.90;;;;;;5026902;28;20046;-93
2021/05/02 08:13:57;;;;;;;22.73;10.35;;;8.80;99.90;;;;;;5015086;28;20042;-94
2021/05/02 08:16:37;;;;;;;26.75;10.38;;;8.90;99.90;;;;;;5030737;28;20072;-94
2021/05/02 08:19:04;;;;;;;18.05;9.30;;;8.90;99.90;;;;;;4995594;28;20046;-92
2021/05/02 08:21:38;;;;;;;21.55;12.13;;;9.00;99.90;;;;;;5004727;28;20031;-94
2021/05/02 08:24:14;;;;;;;17.08;10.35;;;9.00;99.90;;;;;;5034245;28;20048;-94
2021/05/02 08:26:55;;;;;;;24.75;13.10;;;9.10;99.90;;;;;;5012868;28;20046;-94
2021/05/02 08:29:44;;;;;;;;;;;9.10;99.90;;;;;;5007924;28;20038;-91
2021/05/02 08:32:11;;;;;;;19.85;11.57;;;9.20;99.90;;;;;;5021438;28;19919;-94
2021/05/02 08:34:46;;;;;;;20.88;9.65;;;9.30;99.90;;;;;;5018488;28;20044;-92
2021/05/02 08:37:15;;;;;;;16.58;9.43;;;9.40;99.90;;;;;;5034097;28;20033;-93
2021/05/02 08:39:42;;;;;;;19.10;10.70;;;9.40;99.90;;;;;;5035094;28;20040;-93
2021/05/02 08:42:10;;;;;;;16.63;8.18;;;9.40;99.90;;;;;;5020935;28;20069;-93
2021/05/02 08:48:32;;;;;;;18.25;9.27;;;9.60;99.90;;;;;;5028516;28;20058;-93
2021/05/02 08:51:01;;;;;;;19.35;9.63;;;9.70;99.90;;;;;;4997995;28;20056;-92
2021/05/02 08:53:30;;;;;;;17.70;10.45;;;9.80;99.90;;;;;;5008629;28;20054;-94
2021/05/02 08:56:30;;;;;;;17.70;9.82;;;9.90;99.90;;;;;;5025548;28;20062;-94
2021/05/02 08:59:13;;;;;;;14.55;6.18;;;10.10;99.90;;;;;;5007179;28;20045;-93
2021/05/02 09:02:10;;;;;;;16.50;7.68;;;10.20;99.90;;;;;;5033612;28;20062;-91
2021/05/02 09:05:14;;;;;;;14.52;6.65;;;10.30;99.90;;;;;;5033578;28;20034;-91
2021/05/02 09:07:57;;;;;;;15.23;7.90;;;10.50;99.90;;;;;;5033189;28;20060;-94
2021/05/02 09:10:35;;;;;;;13.88;7.60;;;10.60;99.90;;;;;;4998008;28;20058;-90
2021/05/02 09:13:06;;;;;;;19.88;7.97;;;10.80;99.90;;;;;;5002072;28;20046;-90
2021/05/02 09:15:34;;;;;;;16.27;7.10;;;10.80;99.90;;;;;;5029207;28;20054;-93
2021/05/02 09:18:18;;;;;;;14.80;7.20;;;10.90;99.90;;;;;;5067143;23;20882;-94
2021/05/02 09:20:51;;;;;;;14.68;6.68;;;12.10;99.90;;;;;;5023568;28;20059;-94
2021/05/02 09:23:19;;;;;;;16.38;8.00;;;11.10;99.90;;;;;;5026229;28;20053;-92
2021/05/02 09:25:54;;;;;;;15.50;7.35;;;11.20;99.90;;;;;;5024853;28;20046;-92
2021/05/02 09:28:52;;;;;;;13.15;7.32;;;11.40;99.90;;;;;;5024402;28;20054;-92
2021/05/02 09:31:41;;;;;;;14.18;8.07;;;11.60;99.90;;;;;;5027711;28;20225;-93
2021/05/02 09:34:21;;;;;;;12.95;6.88;;;11.80;99.90;;;;;;5028048;28;20050;-92
2021/05/02 09:37:16;;;;;;;14.80;7.25;;;12.00;99.90;;;;;;5014855;28;20058;-92
2021/05/02 09:39:53;;;;;;;12.10;6.45;;;12.10;99.90;;;;;;5016881;28;20369;-91
2021/05/02 09:42:35;;;;;;;10.98;6.88;;;12.20;99.90;;;;;;5020256;28;20044;-87
2021/05/02 09:45:13;;;;;;;12.02;7.35;;;12.70;99.90;;;;;;5069543;23;20063;-87
2021/05/02 09:47:50;;;;;;;15.63;7.20;;;12.20;99.90;;;;;;5036713;28;20049;-88
2021/05/02 09:50:33;;;;;;;13.60;6.65;;;12.10;99.90;;;;;;5116755;23;20427;-89
2021/05/02 09:53:15;;;;;;;13.23;7.95;;;11.70;99.90;;;;;;5214655;23;20048;-93
2021/05/02 09:59:19;;;;;;;17.13;8.15;;;12.00;99.90;;;;;;5182678;22;20038;-88
2021/05/02 10:02:29;;;;;;;10.90;6.55;;;11.90;99.90;;;;;;5052266;28;20096;-88
2021/05/02 10:08:11;;;;;;;15.60;8.20;;;11.90;99.90;;;;;;5006968;28;20054;-91
2021/05/02 10:10:39;;;;;;;11.40;6.95;;;11.90;99.90;;;;;;5014351;28;20057;-93
2021/05/02 10:13:07;;;;;;;14.52;7.60;;;11.80;99.90;;;;;;5007882;28;20050;-94
2021/05/02 10:15:35;;;;;;;16.40;8.15;;;11.80;99.90;;;;;;5010963;28;20049;-88
2021/05/02 10:18:03;;;;;;;12.35;7.97;;;11.70;99.90;;;;;;5014559;28;20066;-93
2021/05/02 10:20:31;;;;;;;24.02;8.50;;;11.70;99.90;;;;;;4998517;28;20101;-93
2021/05/02 10:23:53;;;;;;;15.32;8.48;;;11.60;99.90;;;;;;5016792;28;20041;-89
2021/05/02 10:26:21;;;;;;;14.45;9.20;;;11.50;99.90;;;;;;5022676;28;20058;-93
2021/05/02 10:28:51;;;;;;;20.08;8.90;;;11.10;99.90;;;;;;5002120;28;20046;-94
2021/05/02 10:31:29;;;;;;;13.75;8.93;;;11.50;99.90;;;;;;5013847;28;20050;-92
2021/05/02 10:33:56;;;;;;;22.50;10.27;;;11.50;99.90;;;;;;5001494;28;20497;-91
2021/05/02 10:36:25;;;;;;;16.15;8.82;;;11.50;99.90;;;;;;5019217;28;20041;-91
2021/05/02 10:38:57;;;;;;;15.27;9.20;;;11.50;99.90;;;;;;5019536;28;20480;-93
2021/05/02 10:41:52;;;;;;;14.00;7.25;;;11.40;99.90;;;;;;4988460;28;20089;-93
2021/05/02 10:44:24;;;;;;;18.55;8.82;;;11.50;99.90;;;;;;4959744;28;20050;-92
2021/05/02 10:46:54;;;;;;;16.08;7.82;;;11.50;99.90;;;;;;5020874;28;20049;-93
2021/05/02 10:49:26;;;;;;;12.30;7.50;;;11.60;99.90;;;;;;5009816;28;20050;-94
2021/05/02 10:52:28;;;;;;;15.63;8.20;;;11.70;99.90;;;;;;5002529;28;20046;-92
2021/05/02 10:55:10;;;;;;;13.55;7.85;;;11.80;99.90;;;;;;5008863;28;20053;-91
2021/05/02 10:57:40;;;;;;;13.75;7.63;;;12.00;99.90;;;;;;4998105;28;20494;-94
2021/05/02 11:00:13;;;;;;;12.85;7.75;;;12.20;99.90;;;;;;4989518;28;20058;-92
2021/05/02 11:02:48;;;;;;;17.92;9.27;;;12.30;99.70;;;;;;5020895;28;20065;-94
2021/05/02 11:05:19;;;;;;;17.45;9.07;;;12.50;99.40;;;;;;5005648;28;20073;-92
2021/05/02 11:07:49;;;;;;;15.75;8.23;;;12.50;99.00;;;;;;4984595;28;20054;-90
2021/05/02 11:10:19;;;;;;;14.57;8.82;;;12.60;98.80;;;;;;5024366;28;20061;-91
2021/05/02 11:12:46;;;;;;;18.25;9.20;;;12.70;98.60;;;;;;4976829;28;20060;-91
2021/05/02 11:15:45;;;;;;;13.73;7.78;;;12.80;97.70;;;;;;5018199;28;20049;-89
2021/05/02 11:18:24;;;;;;;18.63;7.70;;;13.00;96.00;;;;;;4995336;28;20457;-93
2021/05/02 11:20:57;;;;;;;19.40;8.75;;;13.10;96.20;;;;;;5021425;28;20072;-91
2021/05/02 11:23:58;;;;;;;17.80;7.63;;;13.20;96.30;;;;;;4981810;28;20050;-88
2021/05/02 11:27:04;;;;;;;17.13;8.90;;;13.20;95.50;;;;;;5011732;28;20072;-92
2021/05/02 11:29:53;;;;;;;12.85;8.82;;;13.40;95.50;;;;;;5013912;28;20510;-87
2021/05/02 11:32:27;;;;;;;15.80;8.82;;;13.50;96.00;;;;;;5007968;28;20065;-89
2021/05/02 11:35:06;;;;;;;18.23;8.90;;;13.50;93.70;;;;;;5004400;28;20036;-87
2021/05/02 11:37:38;;;;;;;16.88;8.40;;;13.30;92.80;;;;;;5003539;28;20058;-94
2021/05/02 11:40:18;;;;;;;16.92;10.40;;;13.30;93.40;;;;;;5023439;28;20025;-89
2021/05/02 11:42:58;;;;;;;12.80;7.32;;;13.30;92.50;;;;;;5013105;28;20046;-90
2021/05/02 11:45:41;;;;;;;13.30;6.35;;;13.30;91.90;;;;;;4985989;28;20050;-94
2021/05/02 11:48:19;;;;;;;14.85;7.60;;;13.10;92.20;;;;;;5005092;28;20046;-93
2021/05/02 11:50:49;;;;;;;11.13;6.47;;;12.90;92.20;;;;;;4985753;28;20049;-92
2021/05/02 11:53:34;;;;;;;10.60;5.75;;;12.70;92.20;;;;;;5001595;28;20049;-92
2021/05/02 11:56:10;;;;;;;10.88;5.75;;;12.50;92.10;;;;;;5032376;23;20049;-87
2021/05/02 11:58:40;;;;;;;6.72;4.93;;;12.50;92.20;;;;;;5068327;28;20083;-91
2021/05/02 12:01:13;;;;;;;;;;;12.60;91.70;;;;;;5064864;28;20051;-91
2021/05/02 12:03:41;;;;;;;8.70;4.78;;;12.60;91.10;;;;;;5040384;28;19905;-89
2021/05/02 12:06:09;;;;;;;8.93;4.88;;;12.70;91.50;;;;;;5063977;28;20044;-91
2021/05/02 12:08:39;;;;;;;15.23;8.57;;;13.10;91.40;;;;;;5042873;28;20044;-90
2021/05/02 12:11:08;;;;;;;12.88;7.45;;;13.20;90.80;;;;;;5054025;28;20059;-92
2021/05/02 12:13:43;;;;;;;9.55;5.72;;;13.50;90.50;;;;;;5039559;28;20052;-91
2021/05/02 12:16:19;;;;;;;14.48;8.18;;;13.70;89.50;;;;;;5054132;28;20048;-91
2021/05/02 12:18:54;;;;;;;14.30;7.18;;;13.90;88.50;;;;;;5055961;28;20048;-88
2021/05/02 12:21:34;;;;;;;13.05;7.97;;;14.00;88.30;;;;;;5071432;28;20049;-87
2021/05/02 12:24:09;;;;;;;13.75;7.97;;;14.10;85.60;;;;;;5076123;28;20056;-91
2021/05/02 12:26:42;;;;;;;12.07;6.95;;;14.20;84.20;;;;;;5054282;28;20066;-88
2021/05/02 12:29:18;;;;;;;10.95;7.55;;;14.20;84.60;;;;;;5068769;28;20053;-84
2021/05/02 12:32:03;;;;;;;16.15;7.75;;;14.40;83.40;;;;;;5071983;28;20049;-91
2021/05/02 12:34:35;;;;;;;14.65;7.78;;;14.50;81.80;;;;;;5087998;28;20041;-90
2021/05/02 12:37:34;;;;;;;16.80;8.88;;;14.60;82.50;;;;;;5089169;28;20045;-90
2021/05/02 12:40:12;;;;;;;15.20;7.35;;;14.60;79.80;;;;;;5086981;28;20036;-92
2021/05/02 12:42:42;;;;;;;12.43;7.88;;;14.70;81.20;;;;;;5086081;28;20744;-91
2021/05/02 12:45:16;;;;;;;10.70;7.57;;;14.60;80.40;;;;;;5058964;28;20031;-89
2021/05/02 12:48:22;;;;;;;13.70;7.45;;;14.60;78.70;;;;;;5056173;28;20025;-86
2021/05/02 12:50:56;;;;;;;14.55;7.63;;;14.60;78.30;;;;;;5084682;28;20037;-93
2021/05/02 12:53:36;;;;;;;16.42;8.25;;;14.40;79.40;;;;;;5062013;28;20052;-91
2021/05/02 12:56:05;;;;;;;15.88;8.65;;;14.30;78.30;;;;;;5074088;28;20046;-88
2021/05/02 12:58:42;;;;;;;14.27;7.88;;;14.20;79.50;;;;;;5088777;28;20064;-86
2021/05/02 13:01:20;;;;;;;14.00;7.90;;;14.10;79.40;;;;;;5069854;28;20049;-89
2021/05/02 13:03:56;;;;;;;18.63;7.82;;;14.00;79.40;;;;;;5067986;28;20499;-90
2021/05/02 13:06:26;;;;;;;16.73;9.45;;;13.60;81.20;;;;;;5057574;28;20067;-92
2021/05/02 13:08:58;;;;;;;23.10;8.73;;;13.50;82.40;;;;;;5079702;28;20090;-91
2021/05/02 13:11:30;;;;;;;12.30;7.10;;;13.50;83.10;;;;;;5047965;28;20060;-89
2021/05/02 13:14:17;;;;;;;12.45;7.50;;;13.50;82.50;;;;;;5062063;28;20052;-87
2021/05/02 13:16:53;;;;;;;15.48;8.18;;;13.50;82.90;;;;;;5058944;28;20060;-86
2021/05/02 13:19:37;;;;;;;18.58;9.40;;;13.60;82.70;;;;;;5064811;28;20119;-91